createdAt,value
2018-12-22T00:02:18.031Z,61.36
2018-12-22T00:04:51.796Z,62.03
2018-12-22T00:07:25.037Z,62.41
2018-12-22T00:09:57.854Z,62.27
2018-12-22T00:12:29.656Z,61.74
2018-12-22T00:15:00.832Z,62.11
2018-12-22T00:17:34.638Z,61.32
2018-12-22T00:20:04.927Z,61.42
2018-12-22T00:22:38.223Z,61.20
2018-12-22T00:25:09.878Z,61.78
2018-12-22T00:27:40.892Z,61.22
2018-12-22T00:30:13.437Z,61.87
2018-12-22T00:32:45.213Z,62.25
2018-12-22T00:35:22.485Z,61.81
2018-12-22T00:37:54.576Z,61.98
2018-12-22T00:40:25.510Z,62.33
2018-12-22T00:42:57.174Z,62.64
2018-12-22T00:45:37.302Z,62.15
2018-12-22T00:48:09.570Z,61.79
2018-12-22T00:50:39.916Z,62.23
2018-12-22T00:53:18.972Z,63.53
2018-12-22T00:55:51.861Z,63.91
2018-12-22T00:58:30.766Z,64.45
2018-12-22T01:01:02.943Z,64.53
2018-12-22T01:03:41.210Z,65.08
2018-12-22T01:06:13.212Z,66.03
2018-12-22T01:08:45.951Z,65.94
2018-12-22T01:11:16.596Z,66.82
2018-12-22T01:13:51.583Z,66.75
2018-12-22T01:16:31.769Z,66.80
2018-12-22T01:19:17.356Z,67.04
2018-12-22T01:21:51.413Z,66.97
2018-12-22T01:24:25.542Z,66.61
2018-12-22T01:26:58.304Z,66.95
2018-12-22T01:29:32.186Z,67.06
2018-12-22T01:32:07.491Z,67.15
2018-12-22T01:34:39.606Z,67.05
2018-12-22T01:37:09.621Z,67.15
2018-12-22T01:39:40.353Z,67.01
2018-12-22T01:42:13.574Z,66.85
2018-12-22T01:44:46.532Z,66.94
2018-12-22T01:47:18.606Z,67.32
2018-12-22T01:49:52.314Z,66.96
2018-12-22T01:52:25.546Z,67.38
2018-12-22T01:54:58.256Z,67.45
2018-12-22T01:57:27.913Z,67.13
2018-12-22T01:59:58.994Z,66.72
2018-12-22T02:02:28.610Z,66.33
2018-12-22T02:04:58.346Z,66.98
2018-12-22T02:07:32.275Z,66.86
2018-12-22T02:10:06.383Z,66.47
2018-12-22T02:12:38.147Z,65.76
2018-12-22T02:17:49.809Z,65.27
2018-12-22T02:20:24.805Z,65.55
2018-12-22T02:22:58.331Z,65.10
2018-12-22T02:25:41.411Z,65.53
2018-12-22T02:28:14.498Z,65.25
2018-12-22T02:30:46.860Z,65.45
2018-12-22T02:33:20.723Z,64.63
2018-12-22T02:35:56.012Z,65.02
2018-12-22T02:38:30.869Z,64.62
2018-12-22T02:41:07.496Z,64.31
2018-12-22T02:43:41.856Z,64.54
2018-12-22T02:48:52.033Z,64.56
2018-12-22T02:51:23.094Z,64.87
2018-12-22T02:53:53.830Z,64.52
2018-12-22T02:56:27.148Z,64.55
2018-12-22T02:59:05.949Z,64.39
2018-12-22T03:01:33.746Z,64.70
2018-12-22T03:04:04.364Z,64.40
2018-12-22T03:06:35.453Z,63.79
2018-12-22T03:09:08.669Z,64.27
2018-12-22T03:11:41.393Z,64.13
2018-12-22T03:14:16.324Z,63.73
2018-12-22T03:16:53.736Z,63.68
2018-12-22T03:19:24.633Z,64.17
2018-12-22T03:22:00.270Z,63.92
2018-12-22T03:24:31.194Z,64.17
2018-12-22T03:27:05.805Z,64.13
2018-12-22T03:29:39.222Z,63.79
2018-12-22T03:32:13.066Z,64.79
2018-12-22T03:34:45.698Z,65.27
2018-12-22T03:37:17.977Z,66.11
2018-12-22T03:39:50.788Z,66.29
2018-12-22T03:42:22.084Z,66.86
2018-12-22T03:44:56.691Z,67.36
2018-12-22T03:47:27.075Z,67.98
2018-12-22T03:49:57.323Z,68.54
2018-12-22T03:55:17.922Z,70.02
2018-12-22T03:57:49.241Z,69.99
2018-12-22T04:00:21.298Z,69.77
2018-12-22T04:02:53.734Z,69.97
2018-12-22T04:08:03.325Z,69.82
2018-12-22T04:10:34.121Z,70.23
2018-12-22T04:13:04.285Z,69.75
2018-12-22T04:15:34.586Z,70.79
2018-12-22T04:18:03.038Z,70.29
2018-12-22T04:20:33.846Z,70.82
2018-12-22T04:23:02.707Z,70.95
2018-12-22T04:25:35.067Z,70.95
2018-12-22T04:28:04.585Z,71.11
2018-12-22T04:30:37.164Z,71.02
2018-12-22T04:33:07.618Z,70.30
2018-12-22T04:35:43.169Z,70.05
2018-12-22T04:40:35.156Z,70.50
2018-12-22T04:43:07.664Z,70.10
2018-12-22T04:45:39.706Z,69.96
2018-12-22T04:48:09.423Z,69.25
2018-12-22T04:50:40.286Z,69.68
2018-12-22T04:53:11.500Z,69.35
2018-12-22T04:55:41.071Z,69.66
2018-12-22T04:58:10.402Z,69.31
2018-12-22T05:00:41.652Z,69.52
2018-12-22T05:03:14.007Z,69.09
2018-12-22T05:05:46.012Z,69.09
2018-12-22T05:08:15.021Z,69.00
2018-12-22T05:10:43.962Z,69.52
2018-12-22T05:13:13.192Z,69.83
2018-12-22T05:15:41.919Z,70.24
2018-12-22T05:18:10.443Z,70.13
2018-12-22T05:20:39.377Z,70.30
2018-12-22T05:23:08.756Z,71.19
2018-12-22T05:25:45.361Z,70.99
2018-12-22T05:28:14.603Z,71.44
2018-12-22T05:30:43.883Z,71.40
2018-12-22T05:33:12.985Z,71.41
2018-12-22T05:37:16.607Z,72.06
2018-12-22T05:39:45.584Z,72.32
2018-12-22T05:42:14.464Z,71.64
2018-12-22T05:44:43.745Z,71.51
2018-12-22T05:47:12.723Z,71.99
2018-12-22T05:49:41.917Z,70.77
2018-12-22T05:52:13.307Z,71.07
2018-12-22T05:54:42.347Z,71.30
2018-12-22T05:59:01.550Z,71.13
2018-12-22T06:01:31.822Z,71.69
2018-12-22T06:04:01.332Z,72.59
2018-12-22T06:06:30.247Z,71.87
2018-12-22T06:09:00.487Z,72.04
2018-12-22T06:11:30.193Z,72.05
2018-12-22T06:13:59.272Z,71.27
2018-12-22T06:16:27.989Z,72.34
2018-12-22T06:18:56.591Z,71.45
2018-12-22T06:21:24.784Z,71.12
2018-12-22T06:23:53.094Z,70.54
2018-12-22T06:26:23.030Z,70.31
2018-12-22T06:28:52.343Z,69.64
2018-12-22T06:31:22.586Z,69.51
2018-12-22T06:33:51.347Z,68.98
2018-12-22T06:36:19.811Z,69.14
2018-12-22T06:38:50.263Z,69.52
2018-12-22T06:41:19.220Z,68.33
2018-12-22T06:43:47.627Z,68.96
2018-12-22T06:46:17.672Z,68.06
2018-12-22T06:48:55.707Z,68.31
2018-12-22T06:51:45.392Z,68.66
2018-12-22T06:54:15.610Z,68.46
2018-12-22T06:56:48.607Z,68.45
2018-12-22T06:59:22.497Z,67.58
2018-12-22T07:01:51.066Z,68.11
2018-12-22T07:04:21.250Z,67.22
2018-12-22T07:06:50.921Z,66.81
2018-12-22T07:09:29.323Z,67.41
2018-12-22T07:11:58.491Z,67.33
2018-12-22T07:14:30.302Z,67.59
2018-12-22T07:16:59.567Z,67.41
2018-12-22T07:19:28.678Z,67.12
2018-12-22T07:21:58.605Z,67.77
2018-12-22T07:24:30.013Z,67.37
2018-12-22T07:26:59.196Z,67.46
2018-12-22T07:31:48.552Z,67.93
2018-12-22T07:34:19.130Z,67.47
2018-12-22T07:36:47.463Z,68.12
2018-12-22T07:39:15.976Z,67.34
2018-12-22T07:41:52.821Z,67.69
2018-12-22T07:44:22.497Z,67.68
2018-12-22T07:46:54.688Z,68.07
2018-12-22T07:49:28.013Z,68.05
2018-12-22T07:51:59.306Z,67.92
2018-12-22T07:54:29.388Z,67.45
2018-12-22T07:56:59.941Z,67.70
2018-12-22T07:59:31.492Z,68.26
2018-12-22T08:02:00.155Z,68.04
2018-12-22T08:04:33.526Z,68.80
2018-12-22T08:07:05.254Z,68.18
2018-12-22T08:09:34.532Z,67.42
2018-12-22T08:12:03.417Z,67.50
2018-12-22T08:14:34.242Z,66.54
2018-12-22T08:17:04.602Z,66.23
2018-12-22T08:19:38.176Z,66.23
2018-12-22T08:22:08.504Z,66.93
2018-12-22T08:24:37.297Z,65.97
2018-12-22T08:27:07.221Z,66.46
2018-12-22T08:29:46.760Z,65.81
2018-12-22T08:32:19.719Z,66.10
2018-12-22T08:34:49.720Z,65.05
2018-12-22T08:37:20.931Z,64.87
2018-12-22T08:39:55.054Z,65.21
2018-12-22T08:42:25.950Z,63.64
2018-12-22T08:44:54.330Z,64.14
2018-12-22T08:47:22.795Z,63.86
2018-12-22T08:49:52.873Z,63.63
2018-12-22T08:52:21.722Z,63.28
2018-12-22T08:54:50.781Z,63.64
2018-12-22T08:57:19.846Z,63.05
2018-12-22T08:59:50.258Z,63.65
2018-12-22T09:02:23.113Z,64.10
2018-12-22T09:05:12.549Z,63.12
2018-12-22T09:07:42.701Z,62.76
2018-12-22T09:10:14.706Z,63.53
2018-12-22T09:12:51.849Z,63.19
2018-12-22T09:15:22.805Z,62.87
2018-12-22T09:17:55.046Z,62.40
2018-12-22T09:20:26.019Z,62.81
2018-12-22T09:23:04.547Z,62.91
2018-12-22T09:25:41.501Z,62.32
2018-12-22T09:28:14.691Z,62.69
2018-12-22T09:31:03.352Z,62.77
2018-12-22T09:33:36.796Z,62.18
2018-12-22T09:37:29.620Z,62.61
2018-12-22T09:39:59.170Z,62.78
2018-12-22T09:42:28.610Z,61.72
2018-12-22T09:45:05.902Z,61.83
2018-12-22T09:47:36.422Z,60.87
2018-12-22T09:50:06.353Z,59.57
2018-12-22T09:52:35.401Z,59.00
2018-12-22T09:55:04.975Z,60.35
2018-12-22T09:57:33.692Z,60.41
2018-12-22T10:00:05.652Z,61.40
2018-12-22T10:02:34.728Z,61.92
2018-12-22T10:05:06.037Z,62.76
2018-12-22T10:07:35.341Z,62.25
2018-12-22T10:10:04.838Z,62.89
2018-12-22T10:12:36.681Z,62.09
2018-12-22T10:17:50.253Z,62.68
2018-12-22T10:20:20.257Z,63.01
2018-12-22T10:22:49.121Z,62.34
2018-12-22T10:25:17.836Z,63.36
2018-12-22T10:27:49.415Z,63.03
2018-12-22T10:30:21.121Z,63.03
2018-12-22T10:32:51.530Z,63.13
2018-12-22T10:35:27.971Z,63.52
2018-12-22T10:38:11.024Z,63.00
2018-12-22T10:43:33.233Z,63.35
2018-12-22T10:46:14.634Z,63.33
2018-12-22T10:48:45.754Z,62.90
2018-12-22T10:53:58.158Z,62.85
2018-12-22T10:56:27.579Z,62.87
2018-12-22T10:58:57.737Z,62.59
2018-12-22T11:01:31.831Z,63.54
2018-12-22T11:04:08.442Z,63.57
2018-12-22T11:06:44.743Z,63.78
2018-12-22T11:09:21.045Z,64.60
2018-12-22T11:11:52.447Z,63.87
2018-12-22T11:14:21.847Z,64.33
2018-12-22T11:16:50.980Z,64.39
2018-12-22T11:19:20.831Z,64.59
2018-12-22T11:21:49.396Z,64.60
2018-12-22T11:24:19.370Z,65.01
2018-12-22T11:26:50.439Z,65.04
2018-12-22T11:29:21.345Z,64.78
2018-12-22T11:31:50.402Z,62.19
2018-12-22T11:34:20.598Z,60.82
2018-12-22T11:36:52.029Z,60.59
2018-12-22T11:39:21.456Z,59.78
2018-12-22T11:41:50.011Z,58.56
2018-12-22T11:44:19.963Z,59.79
2018-12-22T11:46:48.528Z,59.92
2018-12-22T11:49:22.141Z,61.16
2018-12-22T11:51:50.565Z,62.15
2018-12-22T11:54:25.199Z,62.25
2018-12-22T11:57:09.977Z,62.35
2018-12-22T11:59:58.702Z,62.90
2018-12-22T12:02:38.784Z,62.75
2018-12-22T12:05:16.030Z,63.17
2018-12-22T12:07:54.980Z,63.02
2018-12-22T12:10:28.489Z,63.78
2018-12-22T12:15:34.302Z,62.41
2018-12-22T12:18:42.426Z,62.62
2018-12-22T12:21:14.086Z,62.94
2018-12-22T12:23:42.877Z,63.23
2018-12-22T12:26:15.661Z,64.09
2018-12-22T12:28:45.710Z,64.03
2018-12-22T12:31:17.415Z,62.10
2018-12-22T12:33:46.187Z,62.19
2018-12-22T12:36:18.503Z,62.23
2018-12-22T12:38:50.652Z,61.80
2018-12-22T12:41:21.397Z,62.55
2018-12-22T12:46:45.826Z,61.07
2018-12-22T12:49:16.832Z,61.40
2018-12-22T12:51:50.755Z,61.34
2018-12-22T12:54:22.790Z,61.25
2018-12-22T12:56:59.922Z,60.70
2018-12-22T12:59:32.601Z,60.23
2018-12-22T13:02:06.304Z,60.22
2018-12-22T13:04:37.876Z,60.22
2018-12-22T13:07:06.811Z,60.27
2018-12-22T13:09:35.104Z,59.87
2018-12-22T13:12:13.275Z,59.89
2018-12-22T13:14:41.616Z,59.77
2018-12-22T13:17:11.321Z,59.82
2018-12-22T13:19:40.590Z,59.16
2018-12-22T13:22:10.311Z,58.39
2018-12-22T13:24:39.319Z,59.84
2018-12-22T13:27:13.734Z,59.53
2018-12-22T13:29:43.521Z,59.33
2018-12-22T13:32:14.592Z,59.14
2018-12-22T13:34:46.686Z,59.09
2018-12-22T13:37:17.508Z,59.64
2018-12-22T13:39:50.794Z,58.61
2018-12-22T13:42:20.911Z,59.46
2018-12-22T13:44:51.784Z,60.91
2018-12-22T13:47:20.711Z,61.96
2018-12-22T13:49:54.658Z,62.75
2018-12-22T13:52:23.682Z,64.57
2018-12-22T13:54:53.721Z,65.36
2018-12-22T13:57:24.646Z,64.84
2018-12-22T14:02:39.103Z,64.93
2018-12-22T14:05:11.075Z,64.81
2018-12-22T14:07:47.239Z,64.43
2018-12-22T14:10:23.008Z,64.11
2018-12-22T14:12:59.701Z,64.10
2018-12-22T14:15:40.502Z,64.29
2018-12-22T14:21:00.455Z,64.34
2018-12-22T14:23:38.600Z,64.88
2018-12-22T14:26:17.389Z,64.46
2018-12-22T14:28:55.786Z,64.19
2018-12-22T14:31:27.466Z,64.30
2018-12-22T14:34:06.142Z,63.78
2018-12-22T14:36:40.076Z,63.50
2018-12-22T14:39:18.038Z,63.26
2018-12-22T14:41:46.690Z,62.71
2018-12-22T14:44:16.609Z,62.58
2018-12-22T14:46:45.655Z,62.18
2018-12-22T14:49:15.756Z,62.06
2018-12-22T14:51:45.831Z,61.74
2018-12-22T14:54:15.844Z,61.52
2018-12-22T14:56:46.608Z,62.17
2018-12-22T15:01:55.178Z,62.34
2018-12-22T15:04:30.867Z,62.03
2018-12-22T15:07:06.919Z,62.15
2018-12-22T15:09:42.475Z,62.79
2018-12-22T15:12:12.991Z,62.33
2018-12-22T15:15:42.717Z,62.04
2018-12-22T15:18:12.784Z,61.37
2018-12-22T15:20:42.207Z,61.66
2018-12-22T15:23:15.849Z,61.40
2018-12-22T15:25:48.526Z,61.41
2018-12-22T15:28:17.787Z,60.70
2018-12-22T15:30:46.790Z,61.75
2018-12-22T15:33:15.461Z,61.08
2018-12-22T15:36:06.703Z,61.51
2018-12-22T15:38:39.748Z,60.95
2018-12-22T15:41:08.769Z,61.01
2018-12-22T15:43:41.241Z,60.59
2018-12-22T15:46:15.106Z,60.00
2018-12-22T15:48:49.061Z,60.46
2018-12-22T15:51:20.474Z,60.56
2018-12-22T15:56:31.578Z,60.14
2018-12-22T15:59:00.469Z,59.87
2018-12-22T16:01:31.423Z,60.78
2018-12-22T16:04:15.952Z,60.46
2018-12-22T16:06:46.149Z,59.79
2018-12-22T16:09:17.191Z,60.63
2018-12-22T16:11:47.343Z,60.61
2018-12-22T16:14:16.708Z,59.87
2018-12-22T16:16:49.990Z,60.47
2018-12-22T16:19:21.963Z,60.74
2018-12-22T16:21:58.711Z,60.70
2018-12-22T16:24:28.673Z,60.74
2018-12-22T16:27:02.538Z,61.13
2018-12-22T16:29:38.210Z,61.75
2018-12-22T16:32:11.094Z,61.28
2018-12-22T16:37:24.094Z,61.46
2018-12-22T16:39:55.364Z,62.01
2018-12-22T16:42:29.836Z,61.96
2018-12-22T16:47:41.627Z,62.28
2018-12-22T16:50:12.318Z,62.23
2018-12-22T16:52:40.873Z,61.95
2018-12-22T16:55:15.006Z,62.06
2018-12-22T16:57:45.939Z,61.74
2018-12-22T17:00:22.485Z,61.83
2018-12-22T17:03:00.728Z,62.60
2018-12-22T17:05:32.428Z,62.49
2018-12-22T17:08:18.267Z,61.77
2018-12-22T17:10:51.325Z,62.21
2018-12-22T17:13:21.518Z,62.50
2018-12-22T17:15:56.448Z,62.14
2018-12-22T17:18:28.612Z,62.46
2018-12-22T17:21:31.865Z,62.38
2018-12-22T17:24:10.827Z,62.10
2018-12-22T17:26:41.069Z,61.66
2018-12-22T17:29:15.688Z,62.52
2018-12-22T17:31:50.033Z,62.76
2018-12-22T17:34:23.333Z,62.06
2018-12-22T17:36:52.154Z,62.01
2018-12-22T17:39:21.794Z,62.61
2018-12-22T17:41:53.747Z,62.65
2018-12-22T17:44:24.200Z,62.21
2018-12-22T17:46:58.158Z,62.47
2018-12-22T17:49:37.225Z,62.65
2018-12-22T17:52:08.067Z,62.51
2018-12-22T17:54:40.380Z,62.08
2018-12-22T17:57:09.953Z,62.36
2018-12-22T17:59:47.571Z,62.73
2018-12-22T18:02:16.622Z,62.84
2018-12-22T18:04:53.422Z,63.01
2018-12-22T18:07:23.935Z,62.41
2018-12-22T18:10:02.978Z,62.86
2018-12-22T18:12:38.677Z,62.42
2018-12-22T18:15:29.608Z,62.56
2018-12-22T18:18:00.130Z,62.69
2018-12-22T18:20:31.373Z,62.58
2018-12-22T18:23:04.938Z,62.55
2018-12-22T18:25:44.699Z,62.68
2018-12-22T18:28:17.140Z,62.84
2018-12-22T18:30:51.618Z,62.94
2018-12-22T18:33:24.261Z,62.87
2018-12-22T18:35:54.887Z,62.27
2018-12-22T18:38:27.801Z,62.34
2018-12-22T18:41:04.678Z,62.26
2018-12-22T18:43:36.402Z,62.48
2018-12-22T18:46:07.648Z,62.78
2018-12-22T18:48:39.235Z,62.25
2018-12-22T18:51:09.872Z,62.78
2018-12-22T18:53:38.391Z,62.35
2018-12-22T18:56:10.406Z,62.53
2018-12-22T18:58:39.685Z,62.70
2018-12-22T19:01:10.753Z,63.02
2018-12-22T19:03:44.902Z,63.80
2018-12-22T19:06:18.164Z,63.30
2018-12-22T19:11:34.791Z,64.27
2018-12-22T19:14:04.672Z,64.08
2018-12-22T19:16:43.029Z,64.96
2018-12-22T19:19:21.022Z,64.89
2018-12-22T19:21:53.677Z,64.75
2018-12-22T19:24:28.686Z,64.71
2018-12-22T19:27:03.305Z,65.07
2018-12-22T19:29:35.548Z,65.06
2018-12-22T19:32:07.753Z,64.92
2018-12-22T19:34:38.342Z,64.56
2018-12-22T19:37:09.603Z,64.52
2018-12-22T19:39:40.210Z,64.54
2018-12-22T19:42:12.191Z,64.49
2018-12-22T19:44:43.019Z,64.76
2018-12-22T19:47:12.547Z,64.06
2018-12-22T19:49:43.541Z,64.15
2018-12-22T19:52:13.587Z,63.56
2018-12-22T19:54:43.255Z,63.74
2018-12-22T19:57:14.657Z,64.20
2018-12-22T19:59:49.083Z,64.11
2018-12-22T20:02:23.338Z,64.23
2018-12-22T20:07:02.988Z,63.68
2018-12-22T20:09:33.702Z,64.02
2018-12-22T20:12:06.396Z,63.81
2018-12-22T20:14:37.071Z,63.69
2018-12-22T20:17:09.047Z,64.26
2018-12-22T20:19:39.415Z,63.80
2018-12-22T20:22:09.556Z,63.93
2018-12-22T20:24:42.739Z,63.33
2018-12-22T20:27:11.796Z,63.85
2018-12-22T20:29:41.588Z,63.75
2018-12-22T20:32:10.576Z,63.96
2018-12-22T20:34:39.620Z,63.54
2018-12-22T20:37:18.934Z,63.80
2018-12-22T20:42:43.210Z,63.80
2018-12-22T20:45:31.718Z,63.51
2018-12-22T20:48:04.931Z,63.62
2018-12-22T20:50:34.428Z,64.17
2018-12-22T20:53:05.670Z,64.27
2018-12-22T20:55:35.344Z,64.09
2018-12-22T20:58:07.966Z,64.62
2018-12-22T21:00:42.825Z,64.57
2018-12-22T21:06:02.935Z,64.34
2018-12-22T21:08:39.859Z,64.57
2018-12-22T21:11:09.285Z,64.89
2018-12-22T21:13:44.708Z,64.70
2018-12-22T21:16:16.079Z,64.58
2018-12-22T21:18:46.205Z,64.95
2018-12-22T21:21:33.097Z,64.67
2018-12-22T21:24:04.091Z,64.37
2018-12-22T21:26:40.295Z,64.71
2018-12-22T21:29:11.223Z,64.45
2018-12-22T21:31:45.437Z,65.13
2018-12-22T21:34:28.185Z,64.81
2018-12-22T21:37:05.175Z,64.57
2018-12-22T21:39:36.277Z,64.85
2018-12-22T21:42:08.199Z,65.10
2018-12-22T21:44:42.026Z,65.44
2018-12-22T21:47:12.751Z,64.99
2018-12-22T21:49:42.290Z,65.83
2018-12-22T21:52:16.628Z,65.49
2018-12-22T21:54:50.508Z,66.12
2018-12-22T21:57:44.342Z,66.28
2018-12-22T22:00:20.954Z,66.34
2018-12-22T22:02:53.368Z,66.36
2018-12-22T22:05:38.659Z,66.80
2018-12-22T22:08:10.111Z,66.12
2018-12-22T22:10:40.527Z,66.68
2018-12-22T22:13:16.373Z,66.19
2018-12-22T22:15:53.216Z,65.95
2018-12-22T22:18:25.906Z,66.57
2018-12-22T22:20:58.515Z,66.36
2018-12-22T22:23:36.138Z,66.16
2018-12-22T22:26:05.358Z,66.82
2018-12-22T22:28:38.203Z,66.88
2018-12-22T22:31:07.798Z,66.44
2018-12-22T22:33:41.691Z,66.74
2018-12-22T22:36:10.912Z,66.22
2018-12-22T22:38:39.834Z,66.43
2018-12-22T22:41:16.155Z,66.45
2018-12-22T22:43:51.251Z,66.88
2018-12-22T22:46:23.716Z,66.37
2018-12-22T22:48:52.188Z,66.08
2018-12-22T22:51:22.896Z,66.72
2018-12-22T22:53:51.802Z,66.94
2018-12-22T22:56:20.538Z,66.51
2018-12-22T22:58:50.087Z,66.64
2018-12-22T23:01:21.098Z,66.37
2018-12-22T23:03:52.963Z,66.29
2018-12-22T23:23:56.709Z,66.04
2018-12-22T23:26:27.760Z,66.08
2018-12-22T23:31:40.542Z,66.61
2018-12-22T23:34:09.249Z,66.88
2018-12-22T23:36:38.250Z,66.72
2018-12-22T23:39:08.402Z,67.38
2018-12-22T23:41:37.263Z,67.42
2018-12-22T23:44:06.912Z,66.99
2018-12-22T23:46:41.996Z,67.25
2018-12-22T23:49:14.262Z,66.88
2018-12-22T23:51:45.366Z,66.77
2018-12-22T23:56:30.273Z,66.97
2018-12-22T23:58:59.538Z,66.36
